Time;durP1;ratioP1;P1;durP2;ratioP2;P2;SDS_P1;SDS_P2;PMS_P1;PMS_P2;Temp;Humidity;BMP_temperature;BMP_pressure;BME280_temperature;BME280_humidity;BME280_pressure;Samples;Min_cycle;Max_cycle;Signal;HPM_P1;HPM_P2
2021/09/21 00:00:39;;;;;;;10.23;6.17;;;;;;;;;;4900737;29;20199;-91
2021/09/21 00:03:05;;;;;;;15.27;6.50;;;5.80;99.90;;;;;;4901916;29;20268;-90
2021/09/21 00:05:31;;;;;;;9.77;5.37;;;5.80;99.90;;;;;;4901819;29;20322;-91
2021/09/21 00:07:56;;;;;;;10.00;6.37;;;5.80;99.90;;;;;;4884958;29;20273;-90
2021/09/21 00:10:23;;;;;;;10.50;5.10;;;;;;;;;;4885855;29;20250;-90
2021/09/21 00:12:49;;;;;;;8.17;5.03;;;;;;;;;;4884980;29;20592;-90
2021/09/21 00:15:17;;;;;;;10.33;6.23;;;5.90;99.90;;;;;;4883223;29;20217;-91
2021/09/21 00:17:43;;;;;;;9.20;5.97;;;5.90;99.90;;;;;;4884092;29;20185;-91
2021/09/21 00:20:10;;;;;;;11.83;5.80;;;6.00;99.90;;;;;;4900279;29;20189;-91
2021/09/21 00:22:37;;;;;;;11.37;5.90;;;5.90;99.90;;;;;;4900740;29;20269;-91
2021/09/21 00:25:03;;;;;;;11.27;5.73;;;;;;;;;;4883403;29;20229;-91
2021/09/21 00:27:29;;;;;;;9.00;5.00;;;;;;;;;;4900888;29;20196;-90
2021/09/21 00:29:55;;;;;;;11.90;6.07;;;;;;;;;;4883980;29;20268;-91
2021/09/21 00:32:27;;;;;;;8.87;5.50;;;;;;;;;;4899881;29;20272;-90
2021/09/21 00:34:54;;;;;;;9.70;5.90;;;;;;;;;;4900334;29;20191;-91
2021/09/21 00:37:20;;;;;;;10.73;5.70;;;5.80;99.90;;;;;;4899904;29;20252;-91
2021/09/21 00:39:47;;;;;;;9.20;5.43;;;5.80;99.90;;;;;;4900279;29;20185;-90
2021/09/21 00:42:15;;;;;;;11.33;6.03;;;5.80;99.90;;;;;;4899397;29;20183;-92
2021/09/21 00:44:42;;;;;;;11.27;5.70;;;5.90;99.90;;;;;;4899560;29;20241;-91
2021/09/21 00:47:10;;;;;;;10.50;5.57;;;5.80;99.90;;;;;;4899350;29;20233;-91
2021/09/21 00:49:36;;;;;;;10.57;6.07;;;5.80;99.90;;;;;;4883038;29;20205;-92
2021/09/21 00:52:03;;;;;;;13.47;5.23;;;5.80;99.90;;;;;;4882640;29;20211;-91
2021/09/21 00:54:30;;;;;;;11.27;6.23;;;5.80;99.90;;;;;;4882390;29;20180;-92
2021/09/21 00:56:57;;;;;;;9.77;5.97;;;5.80;99.90;;;;;;4899649;29;20252;-92
2021/09/21 00:59:23;;;;;;;9.90;5.50;;;5.80;99.90;;;;;;4882944;29;20640;-92
2021/09/21 01:01:49;;;;;;;9.27;5.17;;;5.80;99.90;;;;;;4883148;29;20181;-92
2021/09/21 01:04:15;;;;;;;8.73;5.40;;;5.80;99.90;;;;;;4899176;29;20669;-90
2021/09/21 01:06:42;;;;;;;9.60;5.03;;;5.80;99.90;;;;;;4882643;29;20193;-91
2021/09/21 01:09:31;;;;;;;9.97;5.30;;;5.70;99.90;;;;;;4882276;29;20200;-93
2021/09/21 01:11:59;;;;;;;10.77;5.80;;;5.80;99.90;;;;;;4882809;29;20193;-92
2021/09/21 01:14:25;;;;;;;17.73;5.60;;;5.90;99.90;;;;;;4882464;29;20230;-92
2021/09/21 01:16:53;;;;;;;9.77;5.53;;;5.90;99.90;;;;;;4899285;29;20186;-92
2021/09/21 01:19:19;;;;;;;8.90;5.73;;;5.90;99.90;;;;;;4898601;29;20655;-91
2021/09/21 01:21:46;;;;;;;10.07;6.63;;;6.00;99.90;;;;;;4866907;29;20181;-93
2021/09/21 01:24:14;;;;;;;9.23;5.40;;;5.90;99.90;;;;;;4882260;29;20181;-92
2021/09/21 01:26:41;;;;;;;13.23;6.13;;;6.00;99.90;;;;;;4867245;29;20522;-92
2021/09/21 01:29:07;;;;;;;10.30;6.37;;;6.10;99.90;;;;;;4898595;29;20541;-93
2021/09/21 01:31:33;;;;;;;12.93;6.80;;;6.10;99.90;;;;;;4882486;29;20199;-91
2021/09/21 01:34:02;;;;;;;12.93;6.83;;;6.10;99.90;;;;;;4867080;29;20592;-91
2021/09/21 01:36:29;;;;;;;10.40;7.17;;;6.10;99.90;;;;;;4898530;29;20666;-93
2021/09/21 01:38:55;;;;;;;10.83;6.50;;;6.10;99.90;;;;;;4899039;29;20181;-91
2021/09/21 01:41:21;;;;;;;11.43;6.30;;;6.20;99.90;;;;;;4881888;29;20226;-91
2021/09/21 01:43:47;;;;;;;10.90;6.73;;;6.30;99.90;;;;;;4866688;29;20190;-91
2021/09/21 01:46:18;;;;;;;10.83;6.87;;;6.30;99.90;;;;;;4898553;29;20237;-93
2021/09/21 01:48:44;;;;;;;10.00;6.53;;;6.30;99.90;;;;;;4898689;29;20646;-93
2021/09/21 01:51:15;;;;;;;15.33;7.93;;;6.30;99.90;;;;;;4898264;29;20252;-93
2021/09/21 01:58:53;;;;;;;12.00;7.57;;;6.30;99.90;;;;;;4898866;29;20216;-91
2021/09/21 02:01:24;;;;;;;13.33;7.73;;;6.30;99.90;;;;;;4881544;29;20225;-90
2021/09/21 02:03:56;;;;;;;10.30;7.10;;;6.30;99.90;;;;;;4898185;29;20177;-91
2021/09/21 02:06:28;;;;;;;12.80;8.13;;;6.30;99.90;;;;;;4897924;29;20173;-90
2021/09/21 02:08:53;;;;;;;9.80;6.30;;;6.40;99.90;;;;;;4882758;29;20229;-92
2021/09/21 02:11:19;;;;;;;18.77;8.03;;;6.40;99.90;;;;;;4898090;29;20228;-91
2021/09/21 02:13:45;;;;;;;12.23;7.80;;;6.40;99.90;;;;;;4898462;29;20222;-92
2021/09/21 02:16:11;;;;;;;14.20;7.43;;;6.40;99.90;;;;;;4881512;29;20182;-90
2021/09/21 02:18:36;;;;;;;11.30;7.50;;;6.40;99.90;;;;;;4882097;29;20185;-91
2021/09/21 02:21:02;;;;;;;13.97;7.50;;;6.40;99.90;;;;;;4866290;29;20288;-92
2021/09/21 02:23:28;;;;;;;14.43;8.07;;;6.50;99.90;;;;;;4898164;29;20189;-92
2021/09/21 02:25:54;;;;;;;12.27;7.83;;;6.50;99.90;;;;;;4881600;29;20240;-90
2021/09/21 02:28:20;;;;;;;13.67;8.07;;;6.50;99.90;;;;;;4881182;29;20189;-91
2021/09/21 02:30:46;;;;;;;17.20;8.43;;;6.50;99.90;;;;;;4865861;29;20213;-90
2021/09/21 02:33:14;;;;;;;14.03;8.40;;;6.60;99.90;;;;;;4897876;29;20181;-90
2021/09/21 02:35:40;;;;;;;14.07;8.50;;;6.60;99.90;;;;;;4898147;29;20674;-90
2021/09/21 02:38:07;;;;;;;14.43;9.13;;;6.60;99.90;;;;;;4881338;29;20627;-90
2021/09/21 02:40:32;;;;;;;17.00;10.77;;;6.60;99.90;;;;;;4897644;29;20186;-90
2021/09/21 02:42:58;;;;;;;24.53;10.57;;;6.60;99.90;;;;;;4865762;29;20591;-90
2021/09/21 02:45:24;;;;;;;21.10;11.97;;;6.60;99.90;;;;;;4897724;29;20209;-91
2021/09/21 02:47:49;;;;;;;19.73;11.07;;;6.70;99.90;;;;;;4881201;29;20241;-92
2021/09/21 02:50:15;;;;;;;17.13;11.07;;;6.70;99.90;;;;;;4880884;29;20244;-90
2021/09/21 02:52:41;;;;;;;21.37;11.53;;;6.70;99.90;;;;;;4882563;29;20631;-90
2021/09/21 02:55:07;;;;;;;18.57;11.63;;;6.70;99.90;;;;;;4901949;29;20186;-91
2021/09/21 02:57:34;;;;;;;24.23;15.63;;;6.60;99.90;;;;;;4898741;29;21025;-90
2021/09/21 03:00:02;;;;;;;24.03;15.77;;;6.60;99.90;;;;;;4881441;29;20194;-92
2021/09/21 03:02:31;;;;;;;26.40;15.30;;;6.50;99.90;;;;;;4881116;29;20208;-91
2021/09/21 03:05:00;;;;;;;34.33;20.83;;;6.60;99.90;;;;;;4884741;29;20177;-90
2021/09/21 03:07:31;;;;;;;48.20;28.30;;;6.60;99.90;;;;;;4901081;29;20177;-89
2021/09/21 03:18:04;;;;;;;36.30;19.80;;;6.50;99.90;;;;;;4885947;29;20250;-90
2021/09/21 03:20:30;;;;;;;53.07;30.43;;;6.50;99.90;;;;;;4900890;29;20193;-90
2021/09/21 03:22:56;;;;;;;49.27;26.87;;;6.50;99.90;;;;;;4884569;29;20256;-90
2021/09/21 03:25:23;;;;;;;48.57;25.70;;;6.50;99.90;;;;;;4883496;29;20241;-90
2021/09/21 03:27:48;;;;;;;35.93;20.40;;;6.60;99.90;;;;;;4884071;29;20565;-90
2021/09/21 03:30:14;;;;;;;33.43;20.00;;;6.60;99.90;;;;;;4900957;29;20213;-90
2021/09/21 03:32:41;;;;;;;55.03;31.07;;;6.50;99.90;;;;;;4902990;29;20193;-90
2021/09/21 03:35:09;;;;;;;41.07;23.43;;;6.50;99.90;;;;;;4871635;29;20185;-92
2021/09/21 03:37:35;;;;;;;62.80;35.67;;;6.50;99.90;;;;;;4885558;29;20200;-89
2021/09/21 03:40:02;;;;;;;24.20;13.93;;;6.50;99.90;;;;;;4902316;29;20192;-89
2021/09/21 03:42:27;;;;;;;19.33;12.07;;;6.60;99.90;;;;;;4904016;29;20185;-90
2021/09/21 03:44:53;;;;;;;21.53;11.93;;;6.50;99.90;;;;;;4919625;29;20193;-89
2021/09/21 03:47:19;;;;;;;20.40;12.10;;;6.60;99.90;;;;;;4899582;29;20197;-91
2021/09/21 03:49:44;;;;;;;17.93;12.70;;;6.60;99.90;;;;;;4895015;29;20729;-90
2021/09/21 03:52:10;;;;;;;22.70;12.57;;;6.50;99.90;;;;;;4890825;29;20189;-90
2021/09/21 03:54:37;;;;;;;33.57;17.57;;;6.60;99.90;;;;;;4891681;29;20237;-90
2021/09/21 03:57:03;;;;;;;26.63;14.33;;;6.60;99.90;;;;;;4920179;29;20189;-89
2021/09/21 03:59:28;;;;;;;25.10;14.77;;;6.60;99.90;;;;;;4890503;29;20562;-89
2021/09/21 04:01:54;;;;;;;24.47;15.13;;;6.60;99.90;;;;;;4887967;29;20189;-91
2021/09/21 04:04:20;;;;;;;26.73;14.80;;;6.60;99.90;;;;;;4900754;29;20590;-90
2021/09/21 04:06:49;;;;;;;29.70;15.13;;;6.70;99.90;;;;;;4900130;29;20756;-90
2021/09/21 04:09:14;;;;;;;27.07;14.87;;;6.70;99.90;;;;;;4900472;29;20181;-90
2021/09/21 04:11:40;;;;;;;28.17;15.77;;;6.70;99.90;;;;;;4882988;29;20190;-91
2021/09/21 04:14:06;;;;;;;31.50;16.90;;;6.60;99.90;;;;;;4913097;29;20207;-90
2021/09/21 04:16:32;;;;;;;29.67;16.87;;;6.60;99.90;;;;;;4898104;29;20228;-95
2021/09/21 04:18:58;;;;;;;22.87;13.73;;;6.70;99.90;;;;;;4912417;29;20185;-93
2021/09/21 04:21:24;;;;;;;22.77;13.47;;;6.70;99.90;;;;;;4933534;29;20177;-91
2021/09/21 04:23:50;;;;;;;25.27;14.27;;;6.80;99.90;;;;;;4935911;29;20632;-93
2021/09/21 04:26:16;;;;;;;26.07;14.10;;;6.80;99.90;;;;;;4900681;29;20257;-92
2021/09/21 04:28:42;;;;;;;23.20;12.87;;;6.80;99.90;;;;;;4887009;29;20181;-92
2021/09/21 04:31:09;;;;;;;28.83;17.40;;;6.80;99.90;;;;;;4888860;29;20565;-93
2021/09/21 04:33:40;;;;;;;27.33;14.80;;;7.50;99.90;;;;;;4889129;29;20220;-92
2021/09/21 04:36:08;;;;;;;30.03;14.53;;;6.80;99.90;;;;;;4893181;29;20200;-93
2021/09/21 04:38:34;;;;;;;31.57;14.47;;;6.80;99.90;;;;;;4882141;29;20206;-93
2021/09/21 04:41:00;;;;;;;24.57;13.13;;;6.80;99.90;;;;;;4865317;29;20647;-95
2021/09/21 04:43:26;;;;;;;22.43;14.37;;;6.90;99.90;;;;;;4879315;29;20273;-95
2021/09/21 04:45:52;;;;;;;24.10;14.53;;;6.80;99.90;;;;;;4881036;29;20222;-95
2021/09/21 04:48:18;;;;;;;23.90;13.93;;;6.90;99.90;;;;;;4880657;29;20233;-95
2021/09/21 04:50:44;;;;;;;25.43;14.97;;;6.90;99.90;;;;;;4867735;29;20209;-93
2021/09/21 04:53:09;;;;;;;31.60;15.50;;;6.90;99.90;;;;;;4891919;29;20411;-91
2021/09/21 04:55:35;;;;;;;27.13;14.20;;;7.00;99.90;;;;;;4889470;29;20189;-92
2021/09/21 04:58:01;;;;;;;30.90;15.00;;;6.90;99.90;;;;;;4864984;29;20671;-91
2021/09/21 05:00:26;;;;;;;29.30;15.87;;;7.00;99.90;;;;;;4879716;29;20277;-92
2021/09/21 05:02:52;;;;;;;30.73;15.83;;;6.90;99.90;;;;;;4864497;29;20775;-92
2021/09/21 05:05:19;;;;;;;35.20;16.60;;;6.90;99.90;;;;;;4865673;29;20934;-92
2021/09/21 05:07:45;;;;;;;31.53;16.23;;;6.90;99.90;;;;;;4866010;29;20185;-93
2021/09/21 05:10:11;;;;;;;33.80;17.77;;;7.00;99.90;;;;;;4878651;29;20220;-92
2021/09/21 05:12:37;;;;;;;34.03;17.87;;;7.00;99.90;;;;;;4877149;29;20208;-92
2021/09/21 05:15:04;;;;;;;36.80;17.63;;;7.00;99.90;;;;;;4879448;29;20230;-91
2021/09/21 05:17:29;;;;;;;33.23;17.33;;;7.00;99.90;;;;;;4878646;29;20180;-91
2021/09/21 05:19:55;;;;;;;37.80;18.43;;;7.00;99.90;;;;;;4877733;29;20186;-91
2021/09/21 05:22:22;;;;;;;35.60;20.20;;;7.10;99.90;;;;;;4878711;29;20190;-93
2021/09/21 05:24:48;;;;;;;39.37;19.73;;;7.00;99.90;;;;;;4870216;29;20229;-91
2021/09/21 05:27:13;;;;;;;38.73;20.23;;;7.00;99.90;;;;;;4889302;29;20181;-90
2021/09/21 05:29:39;;;;;;;47.17;22.77;;;7.00;99.90;;;;;;4888211;29;20224;-93
2021/09/21 05:32:05;;;;;;;47.17;23.00;;;7.10;99.90;;;;;;4886965;29;20220;-92
2021/09/21 05:34:30;;;;;;;62.03;27.90;;;7.10;99.90;;;;;;4875810;29;20670;-91
2021/09/21 05:36:56;;;;;;;56.70;26.70;;;7.10;99.90;;;;;;4894119;29;20229;-93
2021/09/21 05:39:22;;;;;;;65.50;30.27;;;7.10;99.90;;;;;;4898290;29;20197;-91
2021/09/21 05:41:47;;;;;;;65.63;30.97;;;7.20;99.90;;;;;;4898807;29;20668;-91
2021/09/21 05:44:13;;;;;;;57.13;25.77;;;7.10;99.90;;;;;;4886767;29;20197;-92
2021/09/21 05:46:39;;;;;;;58.13;27.70;;;7.20;99.90;;;;;;4878489;29;20194;-89
2021/09/21 05:49:04;;;;;;;60.13;29.00;;;7.20;99.90;;;;;;4884193;29;20185;-92
2021/09/21 05:51:30;;;;;;;62.43;29.50;;;7.20;99.90;;;;;;4882762;29;20671;-92
2021/09/21 05:53:57;;;;;;;56.43;28.70;;;7.20;99.90;;;;;;4881117;29;20196;-94
2021/09/21 05:56:23;;;;;;;52.07;26.20;;;7.20;99.90;;;;;;4896041;29;20707;-93
2021/09/21 05:58:49;;;;;;;44.93;20.73;;;7.20;99.90;;;;;;4897039;29;20184;-91
2021/09/21 06:01:15;;;;;;;45.23;23.50;;;7.20;99.90;;;;;;4897221;29;20192;-91
2021/09/21 06:03:41;;;;;;;43.00;21.70;;;7.20;99.90;;;;;;4897442;29;20189;-91
2021/09/21 06:06:06;;;;;;;42.83;21.83;;;7.20;99.90;;;;;;4897477;29;20177;-92
2021/09/21 06:08:32;;;;;;;37.37;20.17;;;7.20;99.90;;;;;;4881106;29;20189;-88
2021/09/21 06:10:58;;;;;;;31.27;18.97;;;7.20;99.90;;;;;;4883031;29;20587;-93
2021/09/21 06:13:24;;;;;;;30.77;16.80;;;7.20;99.90;;;;;;4897349;29;20186;-90
2021/09/21 06:15:50;;;;;;;27.00;15.03;;;7.10;99.90;;;;;;4897212;29;20185;-93
2021/09/21 06:18:17;;;;;;;19.83;12.33;;;7.10;99.90;;;;;;4897584;29;20252;-94
2021/09/21 06:20:43;;;;;;;20.90;12.03;;;7.10;99.90;;;;;;4899351;29;20208;-94
2021/09/21 06:23:10;;;;;;;17.77;11.73;;;7.10;99.90;;;;;;4890279;29;20285;-92
2021/09/21 06:25:39;;;;;;;17.77;11.50;;;7.00;99.90;;;;;;4888153;29;20233;-91
2021/09/21 06:28:05;;;;;;;19.03;11.57;;;7.10;99.90;;;;;;4889929;29;20189;-91
2021/09/21 06:30:31;;;;;;;17.97;11.30;;;7.10;99.90;;;;;;4889381;29;20646;-94
2021/09/21 06:32:57;;;;;;;18.50;11.70;;;7.10;99.90;;;;;;4870065;29;20257;-92
2021/09/21 06:35:23;;;;;;;22.73;11.10;;;7.10;99.90;;;;;;4885992;29;20306;-93
2021/09/21 06:37:48;;;;;;;20.00;10.70;;;7.10;99.90;;;;;;4893882;29;20260;-95
2021/09/21 06:40:15;;;;;;;14.73;9.90;;;7.10;99.90;;;;;;4887182;29;20193;-91
2021/09/21 06:42:42;;;;;;;17.77;10.10;;;7.20;99.90;;;;;;4885376;29;20209;-91
2021/09/21 06:45:11;;;;;;;17.67;10.00;;;6.50;99.90;;;;;;4885150;29;20189;-92
2021/09/21 06:47:37;;;;;;;17.83;10.37;;;7.30;99.90;;;;;;4884418;29;20194;-91
2021/09/21 06:50:03;;;;;;;17.40;10.77;;;7.50;99.90;;;;;;4871048;29;20205;-94
2021/09/21 06:52:30;;;;;;;16.83;10.30;;;7.50;99.90;;;;;;4892421;29;20675;-93
2021/09/21 06:54:56;;;;;;;15.57;10.63;;;7.50;99.90;;;;;;4874783;29;20272;-95
2021/09/21 06:57:22;;;;;;;19.27;9.90;;;7.60;99.90;;;;;;4894085;29;20281;-93
2021/09/21 06:59:47;;;;;;;15.53;10.03;;;7.70;99.90;;;;;;4882406;29;20358;-91
2021/09/21 07:02:13;;;;;;;20.33;11.37;;;7.60;99.90;;;;;;4883252;29;20658;-92
2021/09/21 07:04:39;;;;;;;14.50;8.93;;;7.70;99.90;;;;;;4889106;29;20672;-90
2021/09/21 07:07:05;;;;;;;15.57;9.10;;;7.60;99.90;;;;;;4886128;29;20189;-89
2021/09/21 07:09:31;;;;;;;15.23;9.50;;;7.70;99.90;;;;;;4900117;29;20212;-90
2021/09/21 07:11:57;;;;;;;16.90;9.70;;;7.60;99.90;;;;;;4901539;29;20197;-91
2021/09/21 07:14:22;;;;;;;16.43;9.57;;;7.80;99.90;;;;;;4901369;29;20185;-90
2021/09/21 07:16:48;;;;;;;14.23;9.53;;;8.00;99.90;;;;;;4895661;29;20200;-94
2021/09/21 07:19:16;;;;;;;21.77;9.63;;;8.00;99.90;;;;;;4874790;29;20277;-91
2021/09/21 07:21:42;;;;;;;13.63;9.03;;;8.10;99.90;;;;;;4890839;29;20662;-91
2021/09/21 07:24:08;;;;;;;15.27;9.37;;;8.10;99.90;;;;;;4887923;29;20190;-89
2021/09/21 07:26:34;;;;;;;13.97;9.47;;;8.20;99.90;;;;;;4889663;29;20239;-90
2021/09/21 07:29:00;;;;;;;13.30;8.07;;;8.30;99.90;;;;;;4887846;29;20190;-89
2021/09/21 07:31:25;;;;;;;12.13;8.00;;;8.40;99.90;;;;;;4883849;29;20256;-89
2021/09/21 07:33:51;;;;;;;12.67;8.23;;;8.40;99.90;;;;;;4902822;29;20197;-90
2021/09/21 07:36:17;;;;;;;13.50;8.13;;;8.40;99.90;;;;;;4898544;29;20185;-91
2021/09/21 07:38:43;;;;;;;15.43;8.07;;;8.50;99.90;;;;;;4899761;29;20182;-91
2021/09/21 07:41:08;;;;;;;14.90;8.70;;;8.40;99.90;;;;;;4899238;29;20197;-91
2021/09/21 07:43:34;;;;;;;13.13;7.97;;;8.50;99.90;;;;;;4899644;29;20185;-93
2021/09/21 07:46:00;;;;;;;15.83;7.87;;;8.60;99.90;;;;;;4899244;29;20192;-94
2021/09/21 07:48:25;;;;;;;14.73;8.73;;;8.60;99.90;;;;;;4900352;29;20185;-92
2021/09/21 07:50:52;;;;;;;12.10;7.83;;;8.80;99.90;;;;;;4894018;29;20218;-92
2021/09/21 07:53:17;;;;;;;13.23;7.97;;;8.80;99.90;;;;;;4894756;29;20181;-90
2021/09/21 07:55:44;;;;;;;12.83;8.33;;;8.70;99.90;;;;;;4919264;29;20186;-90
2021/09/21 07:58:09;;;;;;;10.90;7.93;;;8.70;99.90;;;;;;4891681;29;20189;-91
2021/09/21 08:00:35;;;;;;;15.13;7.53;;;8.70;99.90;;;;;;4887413;29;20197;-89
2021/09/21 08:03:01;;;;;;;11.87;7.83;;;8.80;99.90;;;;;;4911182;29;20249;-89
2021/09/21 08:05:26;;;;;;;12.07;7.20;;;8.70;99.90;;;;;;4910305;29;20549;-90
2021/09/21 08:07:52;;;;;;;11.93;7.63;;;8.70;99.90;;;;;;4897544;29;20196;-90
2021/09/21 08:10:18;;;;;;;13.80;8.10;;;8.70;99.90;;;;;;4883182;29;20212;-90
2021/09/21 08:12:44;;;;;;;14.57;8.00;;;8.90;99.90;;;;;;4898325;29;20193;-91
2021/09/21 08:15:10;;;;;;;14.03;6.50;;;8.90;99.90;;;;;;4899011;29;20324;-92
2021/09/21 08:17:36;;;;;;;12.33;7.03;;;9.10;99.90;;;;;;4882704;29;20181;-93
2021/09/21 08:20:03;;;;;;;9.00;5.83;;;9.30;99.90;;;;;;4898171;29;20527;-95
2021/09/21 08:22:29;;;;;;;13.27;6.63;;;9.20;99.90;;;;;;4906513;29;20937;-90
2021/09/21 08:24:56;;;;;;;13.37;6.07;;;9.20;99.90;;;;;;4898378;29;20317;-91
2021/09/21 08:27:22;;;;;;;8.73;4.37;;;9.30;99.90;;;;;;4900985;29;20275;-90
2021/09/21 08:29:48;;;;;;;8.47;5.53;;;9.40;99.90;;;;;;4900454;29;20204;-90
2021/09/21 08:32:14;;;;;;;8.03;5.20;;;9.40;99.90;;;;;;4918687;29;20193;-90
2021/09/21 08:34:39;;;;;;;12.80;5.63;;;9.40;99.90;;;;;;4900963;29;20189;-89
2021/09/21 08:37:05;;;;;;;8.00;5.03;;;9.60;99.90;;;;;;4917634;29;20565;-90
2021/09/21 08:39:31;;;;;;;9.87;5.50;;;9.60;99.90;;;;;;4918102;29;20540;-89
2021/09/21 08:41:57;;;;;;;9.00;5.20;;;9.70;99.90;;;;;;4901182;29;20709;-90
2021/09/21 08:44:22;;;;;;;10.50;5.67;;;9.80;99.90;;;;;;4917935;29;20594;-91
2021/09/21 08:46:48;;;;;;;8.13;5.40;;;9.80;99.90;;;;;;4885144;29;20279;-91
2021/09/21 08:49:15;;;;;;;7.77;5.00;;;9.80;99.90;;;;;;4917269;29;20180;-91
2021/09/21 08:51:41;;;;;;;9.93;5.40;;;9.80;99.90;;;;;;4918352;29;20196;-91
2021/09/21 08:54:06;;;;;;;12.30;5.57;;;9.80;99.90;;;;;;4919048;29;20192;-93
2021/09/21 08:56:33;;;;;;;6.73;5.53;;;9.80;99.90;;;;;;4902474;29;20192;-91
2021/09/21 08:59:00;;;;;;;8.60;5.00;;;9.70;99.90;;;;;;4900304;29;20661;-90
2021/09/21 09:01:36;;;;;;;9.67;4.30;;;9.70;99.90;;;;;;4900220;29;20232;-90
2021/09/21 09:04:02;;;;;;;5.67;3.83;;;9.70;99.90;;;;;;4898861;29;20196;-89
2021/09/21 09:06:28;;;;;;;9.20;3.90;;;9.70;99.90;;;;;;4899987;29;20185;-90
2021/09/21 09:08:54;;;;;;;7.60;4.60;;;9.90;99.90;;;;;;4885139;29;20184;-91
2021/09/21 09:11:27;;;;;;;7.33;4.33;;;10.00;99.90;;;;;;4903114;29;20231;-90
2021/09/21 09:13:55;;;;;;;7.70;3.80;;;10.10;99.90;;;;;;4901989;29;20197;-92
2021/09/21 09:16:23;;;;;;;7.70;3.97;;;10.10;99.90;;;;;;4916916;29;20244;-91
2021/09/21 09:19:00;;;;;;;9.77;4.53;;;10.00;99.90;;;;;;4899738;29;20230;-92
2021/09/21 09:21:26;;;;;;;7.77;4.17;;;10.00;99.90;;;;;;4917050;29;20662;-90
2021/09/21 09:23:53;;;;;;;9.53;4.17;;;10.00;99.90;;;;;;4899657;29;20215;-90
2021/09/21 09:26:21;;;;;;;4.80;4.10;;;9.90;99.90;;;;;;4885219;29;20328;-93
2021/09/21 09:28:48;;;;;;;6.17;3.90;;;9.90;99.90;;;;;;4902363;29;20247;-91
2021/09/21 09:31:28;;;;;;;5.70;3.07;;;9.80;99.90;;;;;;4921365;29;20271;-92
2021/09/21 09:34:21;;;;;;;4.87;2.80;;;9.70;99.90;;;;;;4918557;29;20220;-92
2021/09/21 09:36:59;;;;;;;5.73;3.43;;;9.60;99.90;;;;;;4919211;29;20165;-90
2021/09/21 09:39:28;;;;;;;5.70;3.90;;;9.60;99.90;;;;;;4919701;29;20172;-89
2021/09/21 09:41:56;;;;;;;7.93;4.03;;;9.50;99.90;;;;;;4918304;29;20176;-91
2021/09/21 09:44:25;;;;;;;5.80;3.57;;;9.50;99.90;;;;;;4916314;29;20661;-89
2021/09/21 09:47:04;;;;;;;9.17;3.50;;;9.50;99.90;;;;;;4898445;29;20331;-91
2021/09/21 09:49:35;;;;;;;8.27;3.60;;;9.50;99.90;;;;;;4916762;29;20160;-92
2021/09/21 09:52:04;;;;;;;5.07;4.20;;;9.70;99.90;;;;;;4925248;29;20184;-90
2021/09/21 09:54:30;;;;;;;5.97;3.13;;;9.80;99.90;;;;;;4916888;29;20271;-90
2021/09/21 09:56:57;;;;;;;6.77;4.00;;;9.90;99.90;;;;;;4887618;29;20199;-90
2021/09/21 09:59:26;;;;;;;5.87;3.30;;;9.90;99.90;;;;;;4916470;29;20172;-92
2021/09/21 10:01:52;;;;;;;7.57;3.10;;;10.20;99.90;;;;;;4920691;29;20164;-91
2021/09/21 10:04:18;;;;;;;4.27;3.23;;;10.30;99.90;;;;;;4919696;29;20160;-91
2021/09/21 10:06:44;;;;;;;5.07;3.50;;;10.20;99.90;;;;;;4903196;29;20189;-91
2021/09/21 10:09:10;;;;;;;7.00;3.23;;;10.00;99.90;;;;;;4934708;29;20180;-91
2021/09/21 10:11:37;;;;;;;6.03;3.90;;;10.00;99.90;;;;;;4913425;29;20223;-91
2021/09/21 10:14:04;;;;;;;8.43;3.67;;;9.90;99.90;;;;;;4916658;29;20188;-90
2021/09/21 10:16:31;;;;;;;7.93;3.70;;;9.80;99.90;;;;;;4929682;29;20207;-87
2021/09/21 10:18:59;;;;;;;7.50;4.00;;;9.80;99.90;;;;;;4914638;29;20200;-89
2021/09/21 10:21:32;;;;;;;5.20;3.40;;;10.10;99.90;;;;;;4915529;29;20168;-90
2021/09/21 10:24:03;;;;;;;5.77;3.60;;;;;;;;;;4913966;29;20189;-90
2021/09/21 10:26:29;;;;;;;5.90;3.50;;;10.10;99.90;;;;;;4920311;29;20235;-91
2021/09/21 10:28:58;;;;;;;6.20;3.97;;;;;;;;;;4930309;23;20301;-89
2021/09/21 10:31:24;;;;;;;5.17;3.40;;;;;;;;;;5021489;23;20235;-90
2021/09/21 10:33:50;;;;;;;5.40;3.37;;;;;;;;;;4957167;29;20220;-90
2021/09/21 10:36:30;;;;;;;5.57;3.13;;;10.10;99.90;;;;;;4942989;29;20172;-91
2021/09/21 10:38:59;;;;;;;4.50;3.00;;;10.10;99.90;;;;;;4947475;29;20187;-89
2021/09/21 10:41:26;;;;;;;7.30;2.60;;;10.30;99.90;;;;;;4953558;29;20191;-90
2021/09/21 10:44:05;;;;;;;3.50;2.73;;;10.60;99.90;;;;;;4936643;29;20279;-91
2021/09/21 10:47:03;;;;;;;4.10;3.07;;;10.80;99.90;;;;;;4950901;29;20155;-90
2021/09/21 10:49:30;;;;;;;4.30;2.95;;;10.70;99.90;;;;;;4937775;29;20178;-90
2021/09/21 10:52:02;;;;;;;2.90;2.50;;;10.60;99.90;;;;;;4945511;28;20251;-91
2021/09/21 10:54:40;;;;;;;5.23;2.90;;;10.60;99.90;;;;;;4940290;29;20242;-89
2021/09/21 10:57:10;;;;;;;4.85;3.13;;;10.80;99.90;;;;;;4951757;29;20175;-90
2021/09/21 10:59:38;;;;;;;3.00;2.40;;;11.10;99.90;;;;;;4934973;29;20188;-92
2021/09/21 11:02:10;;;;;;;2.72;2.38;;;11.10;99.90;;;;;;4935838;29;20188;-90
2021/09/21 11:04:43;;;;;;;4.57;2.70;;;11.10;99.90;;;;;;4943828;29;20187;-91
2021/09/21 11:07:13;;;;;;;3.47;2.50;;;11.00;99.90;;;;;;4946089;29;20180;-92
2021/09/21 11:09:40;;;;;;;3.73;2.53;;;10.90;99.90;;;;;;4924319;28;20208;-91
2021/09/21 11:12:07;;;;;;;3.30;2.55;;;10.90;99.90;;;;;;4943611;29;20689;-90
2021/09/21 11:14:41;;;;;;;5.70;2.90;;;10.80;99.90;;;;;;4939815;29;20188;-91
2021/09/21 11:17:10;;;;;;;6.47;2.53;;;10.80;99.90;;;;;;4938474;29;20163;-90
2021/09/21 11:19:37;;;;;;;6.75;2.55;;;10.90;99.90;;;;;;4940515;29;20251;-91
2021/09/21 11:22:08;;;;;;;4.87;2.50;;;11.00;99.90;;;;;;4958793;29;20256;-92
2021/09/21 11:24:35;;;;;;;6.30;3.80;;;11.10;99.90;;;;;;4950990;29;20184;-88
2021/09/21 11:27:08;;;;;;;5.22;2.80;;;11.10;99.90;;;;;;4934711;29;20223;-90
2021/09/21 11:29:38;;;;;;;5.47;2.47;;;11.20;99.90;;;;;;4938230;29;20235;-88
2021/09/21 11:32:18;;;;;;;2.92;2.33;;;10.40;99.90;;;;;;4932301;29;20314;-90
2021/09/21 11:34:45;;;;;;;3.28;2.55;;;11.10;99.90;;;;;;4934389;29;20187;-91
2021/09/21 11:37:11;;;;;;;3.00;2.43;;;11.00;99.90;;;;;;4921107;29;20290;-92
2021/09/21 11:39:38;;;;;;;13.00;2.90;;;11.10;99.90;;;;;;5003231;23;20250;-90
2021/09/21 11:42:04;;;;;;;2.77;2.20;;;11.10;99.90;;;;;;4924216;29;20212;-91
2021/09/21 11:44:37;;;;;;;6.17;2.80;;;11.00;99.90;;;;;;4923183;29;20188;-89
2021/09/21 11:47:03;;;;;;;4.53;2.63;;;11.10;99.90;;;;;;4898794;29;20189;-90
2021/09/21 11:49:29;;;;;;;4.68;2.78;;;10.90;99.90;;;;;;4923720;29;20191;-91
2021/09/21 11:51:55;;;;;;;6.50;2.97;;;10.90;99.90;;;;;;4906406;29;20185;-89
2021/09/21 11:54:21;;;;;;;4.37;2.87;;;10.90;99.90;;;;;;4921091;29;20681;-91
2021/09/21 11:56:46;;;;;;;2.97;2.57;;;10.90;99.90;;;;;;4924988;29;20264;-90
2021/09/21 11:59:16;;;;;;;4.85;3.05;;;11.00;99.90;;;;;;4914451;29;20272;-90
2021/09/21 12:01:54;;;;;;;5.23;3.50;;;11.10;99.90;;;;;;4908528;29;20177;-89
2021/09/21 12:04:20;;;;;;;5.50;2.80;;;11.20;99.90;;;;;;4907288;29;20174;-92
2021/09/21 12:06:46;;;;;;;2.70;2.28;;;11.20;99.90;;;;;;4894110;29;20197;-90
2021/09/21 12:09:12;;;;;;;4.18;2.70;;;11.20;99.90;;;;;;4894594;29;20181;-91
2021/09/21 12:11:43;;;;;;;3.70;2.80;;;11.20;99.90;;;;;;4915176;29;20208;-90
2021/09/21 12:14:08;;;;;;;4.78;2.92;;;11.40;99.90;;;;;;4918023;29;20213;-90
2021/09/21 12:16:34;;;;;;;3.40;2.53;;;11.50;99.90;;;;;;4896841;29;20197;-90
2021/09/21 12:19:00;;;;;;;8.10;3.10;;;11.50;99.90;;;;;;4912713;29;20177;-90
2021/09/21 12:21:29;;;;;;;5.28;3.17;;;11.40;99.90;;;;;;4893381;29;20313;-91
2021/09/21 12:23:55;;;;;;;7.65;2.65;;;11.40;99.90;;;;;;4907247;29;20209;-90
2021/09/21 12:26:22;;;;;;;3.38;2.67;;;11.50;99.90;;;;;;4901182;29;20240;-91
2021/09/21 12:28:53;;;;;;;3.20;2.45;;;11.40;99.90;;;;;;4900919;29;20276;-89
2021/09/21 12:31:37;;;;;;;3.67;2.65;;;11.40;99.90;;;;;;4904889;29;20241;-93
2021/09/21 12:34:11;;;;;;;6.03;2.78;;;11.30;99.90;;;;;;4890717;29;20193;-90
2021/09/21 12:36:52;;;;;;;4.95;2.88;;;11.20;99.90;;;;;;4905496;29;20209;-89
2021/09/21 12:39:19;;;;;;;4.43;2.50;;;11.40;99.90;;;;;;4894546;29;20304;-90
2021/09/21 12:41:51;;;;;;;4.05;2.65;;;11.50;99.90;;;;;;4924162;29;20181;-90
2021/09/21 12:44:21;;;;;;;5.90;2.70;;;11.60;99.90;;;;;;4923083;29;20184;-88
2021/09/21 12:46:48;;;;;;;3.30;2.60;;;11.60;99.90;;;;;;4922020;29;20189;-90
2021/09/21 12:49:16;;;;;;;2.92;2.33;;;11.60;99.90;;;;;;4928690;29;20185;-90
2021/09/21 12:51:48;;;;;;;5.65;2.63;;;11.60;99.90;;;;;;4928472;29;20212;-90
2021/09/21 12:54:17;;;;;;;10.13;2.65;;;11.50;99.90;;;;;;4930255;29;20647;-92
2021/09/21 12:56:46;;;;;;;5.72;2.70;;;11.50;99.90;;;;;;4913564;29;20555;-90
2021/09/21 12:59:14;;;;;;;4.38;2.92;;;11.40;99.90;;;;;;4926231;29;20236;-90
2021/09/21 13:01:41;;;;;;;5.47;2.60;;;11.40;99.90;;;;;;4928922;29;20184;-93